Pomfret Center, CT (06259)

11:52 AM EDT on August 29, 2015 (GMT -0400)
Pomfret School | | Change Station
CLOSE
Current Station
Personal Weather Station
Location: Pomfret, CT
Elevation: 577 ft
Nearby Weather Stations

Elev 577 ft 41.89 °N, 71.97 °W | Updated 4 seconds ago

Clear
Clear
76.8 °F
Feels Like 79 °F
N
0.0
Wind Variable Wind from West
Gusts 1.0 mph

Today
High -- | Low -- °F
--% Chance of Precip.
Yesterday
High -- | Low -- °F
Precip. -- in
6:10 AM 7:26 PM
Full, 100% visible
Pressure 30.21 in
Visibility 10.0 miles
Clouds Clear
Heat Index 79 °F
Dew Point 64 °F
Humidity 65%
Rainfall 0.00 in
Snow Depth Not available.
UV 7 out of 12
Pollen 10.10 out of 12
Air Quality Not available.
Flu Activity Not available.
METAR KIJD 291452Z AUTO 28005KT 10SM CLR 24/13 A3021 RMK AO2 SLP228 T02390128 58004
Pressure 30.21 in
Visibility 10.0 miles
Clouds Clear
Heat Index 79 °F
Dew Point 64 °F
Humidity 65%
Rainfall 0.00 in
Snow Depth Not available.
UV 7 out of 12
Pollen 10.10 out of 12
Air Quality Not available.
Flu Activity Not available.
METAR KIJD 291452Z AUTO 28005KT 10SM CLR 24/13 A3021 RMK AO2 SLP228 T02390128 58004

10-Day Weather Forecast

×

Almanac

Astronomy

Aug. 29, 2015 Rise Set
Actual Time
Civil Twilight
Nautical Twilight
Astronomical Twilight
Moon
Length of Visible Light
Length of Day
Tomorrow will be .
, % of the Moon is Illuminated

Today's Extremes

State Highs State Lows

Community

WunderPhotos

Upload Photos

1,850,700 photos uploaded!

WunderBlogs® & News

Nearby

Air Quality

  Air Quality AQ Index Pollutant
Not available.

Snow Depth

Station Depth Elevation

Earthquake Activity

City Distance Mag. Time & Date
Minimum magnitude displayed is 2.5.

Coastal Water Temperatures

Place Temperature

Stations

Nearby Weather Stations

Station Location Temp. Windchill Dew Point Humidity Wind Precip. Elev Updated Type